createdAt,value
2018-03-22T00:00:36.028Z,31.13
2018-03-22T00:02:37.839Z,33.60
2018-03-22T00:04:38.836Z,31.50
2018-03-22T00:06:39.864Z,29.53
2018-03-22T00:08:40.960Z,30.77
2018-03-22T00:10:41.976Z,30.30
2018-03-22T00:12:43.064Z,30.50
2018-03-22T00:14:44.042Z,30.10
2018-03-22T00:16:45.149Z,34.92
2018-03-22T00:18:47.080Z,34.40
2018-03-22T00:20:48.065Z,31.10
2018-03-22T00:22:49.938Z,37.08
2018-03-22T00:24:50.937Z,30.00
2018-03-22T00:26:51.908Z,30.40
2018-03-22T00:28:53.705Z,31.47
2018-03-22T00:30:54.729Z,29.47
2018-03-22T00:32:55.720Z,27.90
2018-03-22T00:34:56.881Z,27.67
2018-03-22T00:36:57.937Z,28.40
2018-03-22T00:38:58.935Z,26.80
2018-03-22T00:40:59.939Z,18.90
2018-03-22T00:43:01.227Z,22.93
2018-03-22T00:45:03.024Z,24.60
2018-03-22T00:47:04.242Z,23.23
2018-03-22T00:49:06.162Z,19.70
2018-03-22T00:51:07.149Z,21.43
2018-03-22T00:53:08.668Z,21.63
2018-03-22T00:55:09.683Z,19.13
2018-03-22T00:57:10.764Z,18.63
2018-03-22T00:59:11.760Z,19.73
2018-03-22T01:01:13.499Z,18.87
2018-03-22T01:03:14.501Z,17.40
2018-03-22T01:05:15.534Z,18.80
2018-03-22T01:07:16.540Z,19.80
2018-03-22T01:09:17.542Z,18.83
2018-03-22T01:11:18.563Z,16.73
2018-03-22T01:13:19.542Z,17.53
2018-03-22T01:15:20.600Z,17.47
2018-03-22T01:17:22.283Z,19.50
2018-03-22T01:19:23.512Z,17.97
2018-03-22T01:21:24.485Z,18.07
2018-03-22T01:23:25.520Z,18.43
2018-03-22T01:25:26.476Z,19.63
2018-03-22T01:27:27.467Z,18.30
2018-03-22T01:29:28.519Z,18.50
2018-03-22T01:31:29.520Z,18.37
2018-03-22T01:33:30.601Z,18.53
2018-03-22T01:35:31.583Z,18.37
2018-03-22T01:37:32.825Z,18.87
2018-03-22T01:39:33.835Z,24.58
2018-03-22T01:41:36.193Z,21.37
2018-03-22T01:43:41.058Z,21.70
2018-03-22T01:45:42.929Z,20.87
2018-03-22T01:47:43.945Z,20.80
2018-03-22T01:49:44.979Z,19.90
2018-03-22T01:51:46.052Z,21.20
2018-03-22T01:53:47.059Z,18.70
2018-03-22T01:55:48.093Z,19.40
2018-03-22T01:57:49.160Z,21.30
2018-03-22T01:59:50.215Z,21.33
2018-03-22T02:01:51.209Z,20.50
2018-03-22T02:03:52.154Z,18.90
2018-03-22T02:05:53.146Z,19.13
2018-03-22T02:07:54.135Z,18.87
2018-03-22T02:09:55.128Z,18.90
2018-03-22T02:11:56.118Z,21.25
2018-03-22T02:13:57.121Z,18.43
2018-03-22T02:15:58.128Z,17.90
2018-03-22T02:17:59.115Z,20.60
2018-03-22T02:20:00.206Z,20.63
2018-03-22T02:22:01.505Z,19.63
2018-03-22T02:24:02.500Z,22.80
2018-03-22T02:26:03.597Z,21.80
2018-03-22T02:28:04.643Z,20.57
2018-03-22T02:30:05.730Z,20.00
2018-03-22T02:32:06.711Z,21.10
2018-03-22T02:34:07.694Z,19.70
2018-03-22T02:36:08.965Z,23.27
2018-03-22T02:38:10.012Z,22.90
2018-03-22T02:40:11.001Z,21.87
2018-03-22T02:42:11.991Z,23.17
2018-03-22T02:44:12.951Z,20.40
2018-03-22T02:46:14.676Z,24.20
2018-03-22T02:48:15.694Z,23.55
2018-03-22T02:50:16.715Z,21.63
2018-03-22T02:52:17.811Z,25.80
2018-03-22T02:54:18.822Z,24.07
2018-03-22T02:56:19.807Z,22.87
2018-03-22T02:58:21.644Z,24.30
2018-03-22T03:00:22.617Z,23.60
2018-03-22T03:02:23.723Z,21.47
2018-03-22T03:04:24.748Z,21.17
2018-03-22T03:06:25.886Z,17.40
2018-03-22T03:08:27.009Z,26.83
2018-03-22T03:10:28.767Z,22.50
2018-03-22T03:12:29.779Z,22.50
2018-03-22T03:14:30.803Z,23.50
2018-03-22T03:16:31.796Z,18.57
2018-03-22T03:18:32.796Z,17.70
2018-03-22T03:20:33.797Z,23.87
2018-03-22T03:22:34.927Z,20.97
2018-03-22T03:24:35.903Z,20.50
2018-03-22T03:26:36.876Z,21.30
2018-03-22T03:28:37.875Z,16.33
2018-03-22T03:30:38.976Z,18.80
2018-03-22T03:32:39.939Z,19.77
2018-03-22T03:34:40.923Z,20.30
2018-03-22T03:36:42.025Z,23.27
2018-03-22T03:38:43.772Z,22.20
2018-03-22T03:40:44.739Z,24.70
2018-03-22T03:42:45.732Z,21.30
2018-03-22T03:44:46.707Z,25.90
2018-03-22T03:46:47.728Z,22.03
2018-03-22T03:48:49.528Z,26.10
2018-03-22T03:50:51.151Z,31.83
2018-03-22T03:52:52.295Z,20.77
2018-03-22T03:54:53.299Z,31.23
2018-03-22T03:56:54.302Z,29.80
2018-03-22T03:58:56.086Z,30.50
2018-03-22T04:00:57.875Z,31.00
2018-03-22T04:02:59.585Z,29.57
2018-03-22T04:05:00.693Z,28.17
2018-03-22T04:07:01.869Z,27.17
2018-03-22T04:09:03.092Z,34.43
2018-03-22T04:11:04.100Z,37.10
2018-03-22T04:13:05.995Z,36.80
2018-03-22T04:15:08.240Z,22.83
2018-03-22T04:17:11.481Z,36.50
2018-03-22T04:19:12.587Z,38.50
2018-03-22T04:21:14.336Z,30.00
2018-03-22T04:23:15.288Z,32.00
2018-03-22T04:25:16.334Z,34.20
2018-03-22T04:27:18.355Z,32.97
2018-03-22T04:29:19.351Z,29.43
2018-03-22T04:31:20.359Z,31.63
2018-03-22T04:33:21.357Z,33.70
2018-03-22T04:35:23.122Z,36.73
2018-03-22T04:37:24.084Z,46.65
2018-03-22T04:39:25.081Z,39.77
2018-03-22T04:41:26.052Z,32.17
2018-03-22T04:43:27.056Z,42.60
2018-03-22T04:45:28.076Z,39.83
2018-03-22T04:47:29.592Z,37.27
2018-03-22T04:49:30.565Z,40.40
2018-03-22T04:51:33.048Z,38.10
2018-03-22T04:53:34.755Z,37.37
2018-03-22T04:55:35.701Z,36.80
2018-03-22T04:57:37.476Z,36.57
2018-03-22T04:59:38.478Z,29.67
2018-03-22T05:01:39.502Z,28.00
2018-03-22T05:03:40.411Z,50.00
2018-03-22T05:05:41.342Z,39.13
2018-03-22T05:07:43.849Z,39.43
2018-03-22T05:09:44.829Z,39.67
2018-03-22T05:11:46.531Z,33.30
2018-03-22T05:13:49.389Z,36.90
2018-03-22T05:15:50.343Z,36.47
2018-03-22T05:17:51.331Z,39.00
2018-03-22T05:19:52.282Z,34.00
2018-03-22T05:21:53.222Z,32.83
2018-03-22T05:23:54.232Z,60.60
2018-03-22T05:25:55.204Z,40.47
2018-03-22T05:27:56.157Z,38.40
2018-03-22T05:29:57.107Z,55.15
2018-03-22T05:31:58.083Z,41.17
2018-03-22T05:33:59.022Z,43.87
2018-03-22T05:36:00.067Z,45.00
2018-03-22T05:38:01.070Z,42.13
2018-03-22T05:40:02.199Z,31.93
2018-03-22T05:42:03.177Z,46.67
2018-03-22T05:44:04.168Z,38.57
2018-03-22T05:46:05.127Z,44.27
2018-03-22T05:48:06.968Z,42.30
2018-03-22T05:50:07.945Z,42.97
2018-03-22T05:52:09.638Z,42.50
2018-03-22T05:54:10.602Z,38.90
2018-03-22T05:56:12.354Z,38.63
2018-03-22T05:58:13.327Z,38.37
2018-03-22T06:00:14.693Z,39.73
2018-03-22T06:02:16.119Z,41.03
2018-03-22T06:04:17.110Z,39.70
2018-03-22T06:06:18.981Z,42.63
2018-03-22T06:08:20.008Z,41.07
2018-03-22T06:10:20.955Z,41.67
2018-03-22T06:12:21.907Z,41.87
2018-03-22T06:14:22.897Z,35.97
2018-03-22T06:16:23.856Z,43.80
2018-03-22T06:18:24.992Z,38.57
2018-03-22T06:20:25.973Z,36.40
2018-03-22T06:22:26.936Z,41.03
2018-03-22T06:24:27.902Z,40.50
2018-03-22T06:26:29.612Z,41.30
2018-03-22T06:28:30.567Z,41.10
2018-03-22T06:30:31.551Z,66.78
2018-03-22T06:32:33.261Z,46.27
2018-03-22T06:34:34.986Z,41.43
2018-03-22T06:36:36.793Z,40.58
2018-03-22T06:38:37.798Z,39.23
2018-03-22T06:40:39.665Z,31.87
2018-03-22T06:42:41.364Z,40.07
2018-03-22T06:44:42.327Z,30.80
2018-03-22T06:46:43.275Z,31.87
2018-03-22T06:48:44.284Z,32.00
2018-03-22T06:50:45.357Z,37.73
2018-03-22T06:52:46.369Z,33.60
2018-03-22T06:54:47.342Z,32.83
2018-03-22T06:56:48.279Z,32.60
2018-03-22T06:58:49.264Z,28.93
2018-03-22T07:00:50.227Z,29.47
2018-03-22T07:02:51.155Z,30.43
2018-03-22T07:04:52.177Z,27.40
2018-03-22T07:06:53.178Z,28.57
2018-03-22T07:08:54.077Z,28.47
2018-03-22T07:10:55.065Z,29.37
2018-03-22T07:12:56.002Z,28.47
2018-03-22T07:14:56.943Z,32.10
2018-03-22T07:16:58.025Z,33.40
2018-03-22T07:18:59.975Z,26.10
2018-03-22T07:21:01.703Z,27.47
2018-03-22T07:23:03.534Z,27.63
2018-03-22T07:25:05.556Z,30.07
2018-03-22T07:27:06.643Z,26.70
2018-03-22T07:29:08.512Z,23.00
2018-03-22T07:31:09.485Z,38.78
2018-03-22T07:33:10.419Z,30.90
2018-03-22T07:35:11.360Z,26.77
2018-03-22T07:37:12.294Z,26.63
2018-03-22T07:39:13.254Z,26.47
2018-03-22T07:41:14.195Z,23.17
2018-03-22T07:43:21.202Z,32.13
2018-03-22T07:45:22.170Z,29.67
2018-03-22T07:47:23.197Z,24.47
2018-03-22T07:49:24.143Z,19.97
2018-03-22T07:51:25.834Z,23.57
2018-03-22T07:53:27.558Z,21.20
2018-03-22T07:55:28.527Z,23.57
2018-03-22T07:57:29.598Z,23.17
2018-03-22T07:59:30.575Z,18.60
2018-03-22T08:01:32.282Z,24.93
2018-03-22T08:03:33.207Z,20.60
2018-03-22T08:05:34.270Z,23.10
2018-03-22T08:07:35.238Z,26.90
2018-03-22T08:09:36.211Z,22.73
2018-03-22T08:11:37.151Z,27.47
2018-03-22T08:13:38.859Z,26.67
2018-03-22T08:15:39.829Z,42.93
2018-03-22T08:17:40.791Z,30.17
2018-03-22T08:19:41.732Z,27.63
2018-03-22T08:21:42.729Z,41.80
2018-03-22T08:23:43.687Z,32.40
2018-03-22T08:25:44.700Z,29.27
2018-03-22T08:27:45.687Z,31.83
2018-03-22T08:29:46.766Z,28.97
2018-03-22T08:31:47.776Z,26.17
2018-03-22T08:33:48.738Z,28.35
2018-03-22T08:35:50.849Z,27.97
2018-03-22T08:37:52.688Z,26.20
2018-03-22T08:39:53.861Z,22.05
2018-03-22T08:41:55.570Z,24.77
2018-03-22T08:43:56.524Z,24.10
2018-03-22T08:45:57.900Z,22.77
2018-03-22T08:47:58.862Z,23.30
2018-03-22T08:49:59.843Z,24.00
2018-03-22T08:52:00.808Z,21.33
2018-03-22T08:54:01.819Z,22.93
2018-03-22T08:56:03.510Z,26.37
2018-03-22T08:58:04.523Z,20.13
2018-03-22T09:00:05.467Z,29.95
2018-03-22T09:02:06.460Z,24.10
2018-03-22T09:04:07.391Z,23.33
2018-03-22T09:06:08.581Z,24.92
2018-03-22T09:08:09.609Z,25.10
2018-03-22T09:10:10.516Z,27.27
2018-03-22T09:12:12.199Z,23.73
2018-03-22T09:14:13.222Z,22.47
2018-03-22T09:16:14.233Z,22.97
2018-03-22T09:18:15.206Z,22.70
2018-03-22T09:20:16.162Z,24.20
2018-03-22T09:22:18.036Z,22.40
2018-03-22T09:24:19.042Z,21.93
2018-03-22T09:26:20.655Z,22.33
2018-03-22T09:28:21.652Z,23.27
2018-03-22T09:30:22.719Z,22.77
2018-03-22T09:32:23.718Z,25.67
2018-03-22T09:34:24.703Z,21.60
2018-03-22T09:36:25.908Z,21.03
2018-03-22T09:38:26.903Z,23.67
2018-03-22T09:40:28.005Z,34.73
2018-03-22T09:42:29.011Z,27.00
2018-03-22T09:44:30.003Z,26.50
2018-03-22T09:46:30.987Z,32.05
2018-03-22T09:48:31.975Z,27.50
2018-03-22T09:50:34.321Z,22.27
2018-03-22T09:52:42.331Z,19.00
2018-03-22T09:54:43.333Z,22.47
2018-03-22T09:56:44.356Z,22.07
2018-03-22T09:58:45.344Z,22.07
2018-03-22T10:00:49.468Z,19.93
2018-03-22T10:02:51.115Z,18.07
2018-03-22T10:04:52.961Z,19.62
2018-03-22T10:06:53.974Z,20.20
2018-03-22T10:08:54.927Z,16.97
2018-03-22T10:10:55.887Z,16.87
2018-03-22T10:12:57.240Z,16.90
2018-03-22T10:14:58.284Z,15.70
2018-03-22T10:17:00.046Z,18.37
2018-03-22T10:19:02.020Z,28.08
2018-03-22T10:21:05.172Z,23.43
2018-03-22T10:23:06.244Z,16.47
2018-03-22T10:25:07.250Z,25.65
2018-03-22T10:27:11.644Z,22.60
2018-03-22T10:29:12.792Z,21.60
2018-03-22T10:31:13.828Z,20.17
2018-03-22T10:33:15.600Z,18.27
2018-03-22T10:35:19.470Z,19.17
2018-03-22T10:37:20.611Z,18.47
2018-03-22T10:39:21.569Z,26.12
2018-03-22T10:41:22.546Z,20.40
2018-03-22T10:43:29.498Z,20.90
2018-03-22T10:45:30.481Z,26.98
2018-03-22T10:47:32.596Z,21.67
2018-03-22T10:49:35.711Z,19.87
2018-03-22T10:51:36.692Z,17.50
2018-03-22T10:53:37.693Z,19.70
2018-03-22T10:55:38.644Z,19.63
2018-03-22T10:57:39.639Z,18.77
2018-03-22T10:59:41.413Z,17.60
2018-03-22T11:01:49.320Z,20.87
2018-03-22T11:03:52.412Z,21.70
2018-03-22T11:05:53.395Z,19.97
2018-03-22T11:07:56.862Z,18.77
2018-03-22T11:09:57.888Z,17.80
2018-03-22T11:11:58.820Z,20.70
2018-03-22T11:13:59.803Z,18.37
2018-03-22T11:16:01.504Z,16.93
2018-03-22T11:18:02.482Z,24.70
2018-03-22T11:20:07.500Z,20.60
2018-03-22T11:22:08.626Z,20.73
2018-03-22T11:24:09.609Z,19.73
2018-03-22T11:26:13.532Z,17.60
2018-03-22T11:28:15.445Z,20.90
2018-03-22T11:30:19.539Z,18.20
2018-03-22T11:32:21.632Z,19.00
2018-03-22T11:34:29.390Z,17.90
2018-03-22T11:36:32.521Z,19.43
2018-03-22T11:38:36.729Z,18.10
2018-03-22T11:40:37.716Z,18.00
2018-03-22T11:42:38.666Z,17.83
2018-03-22T11:44:40.883Z,18.08
2018-03-22T11:46:42.747Z,18.40
2018-03-22T11:48:43.771Z,19.03
2018-03-22T11:50:44.722Z,16.60
2018-03-22T11:52:45.691Z,18.40
2018-03-22T11:54:52.229Z,18.80
2018-03-22T11:59:35.517Z,24.00
2018-03-22T12:01:36.517Z,19.60
2018-03-22T12:03:40.833Z,17.50
2018-03-22T12:05:42.195Z,21.83
2018-03-22T12:07:43.164Z,18.90
2018-03-22T12:09:44.879Z,20.07
2018-03-22T12:11:46.186Z,17.37
2018-03-22T12:13:47.217Z,18.13
2018-03-22T12:15:48.520Z,18.43
2018-03-22T12:17:54.034Z,17.80
2018-03-22T12:20:19.243Z,14.27
2018-03-22T12:22:20.259Z,17.87
2018-03-22T12:24:21.224Z,18.37
2018-03-22T12:26:22.207Z,23.75
2018-03-22T12:28:23.211Z,19.60
2018-03-22T12:30:24.183Z,19.20
2018-03-22T12:32:25.170Z,23.00
2018-03-22T12:34:34.184Z,20.43
2018-03-22T12:36:35.519Z,19.77
2018-03-22T12:41:15.970Z,26.65
2018-03-22T12:43:17.114Z,21.40
2018-03-22T12:45:18.053Z,20.30
2018-03-22T12:47:19.038Z,27.83
2018-03-22T12:49:20.785Z,21.80
2018-03-22T12:51:21.759Z,21.17
2018-03-22T12:53:22.710Z,22.20
2018-03-22T12:55:26.772Z,20.53
2018-03-22T12:57:47.997Z,20.30
2018-03-22T12:59:48.955Z,19.83
2018-03-22T13:03:59.907Z,20.20
2018-03-22T13:06:02.413Z,22.40
2018-03-22T13:08:04.219Z,32.80
2018-03-22T13:10:05.174Z,25.17
2018-03-22T13:12:06.147Z,23.80
2018-03-22T13:14:07.074Z,27.02
2018-03-22T13:16:08.015Z,23.83
2018-03-22T13:18:08.954Z,21.77
2018-03-22T13:20:10.660Z,23.60
2018-03-22T13:22:12.887Z,23.50
2018-03-22T13:24:14.681Z,22.30
2018-03-22T13:26:20.973Z,22.00
2018-03-22T13:28:24.568Z,22.93
2018-03-22T13:30:25.679Z,24.20
2018-03-22T13:32:26.699Z,22.67
2018-03-22T13:34:27.704Z,30.85
2018-03-22T13:36:28.693Z,25.53
2018-03-22T13:38:29.674Z,23.10
2018-03-22T13:40:31.435Z,25.13
2018-03-22T13:42:33.193Z,24.10
2018-03-22T13:44:37.617Z,24.03
2018-03-22T13:46:42.906Z,23.50
2018-03-22T13:48:47.147Z,29.12
2018-03-22T13:50:54.538Z,27.00
2018-03-22T13:52:56.535Z,23.73
2018-03-22T13:54:57.559Z,22.00
2018-03-22T13:56:58.592Z,31.83
2018-03-22T13:58:59.568Z,25.23
2018-03-22T14:01:00.558Z,24.47
2018-03-22T14:03:02.304Z,23.83
2018-03-22T14:05:03.940Z,26.07
2018-03-22T14:07:05.142Z,23.37
2018-03-22T14:09:06.179Z,23.00
2018-03-22T14:11:07.915Z,29.07
2018-03-22T14:13:10.308Z,26.17
2018-03-22T14:15:12.566Z,25.47
2018-03-22T14:17:15.844Z,20.90
2018-03-22T14:19:16.921Z,22.93
2018-03-22T14:21:17.934Z,21.97
2018-03-22T14:23:19.719Z,19.83
2018-03-22T14:25:20.740Z,21.53
2018-03-22T14:27:21.716Z,20.23
2018-03-22T14:29:24.324Z,22.60
2018-03-22T14:31:27.179Z,31.60
2018-03-22T14:33:28.184Z,25.37
2018-03-22T14:35:29.127Z,23.43
2018-03-22T14:37:30.096Z,21.10
2018-03-22T14:39:31.208Z,22.70
2018-03-22T14:41:32.186Z,18.23
2018-03-22T14:43:33.207Z,19.20
2018-03-22T14:45:34.892Z,21.30
2018-03-22T14:47:35.880Z,28.17
2018-03-22T14:52:08.716Z,18.13
2018-03-22T14:54:10.495Z,20.47
2018-03-22T14:56:13.143Z,17.20
2018-03-22T14:58:14.156Z,19.27
2018-03-22T15:00:15.188Z,24.67
2018-03-22T15:02:16.391Z,25.40
2018-03-22T15:04:17.463Z,20.07
2018-03-22T15:06:22.869Z,19.57
2018-03-22T15:08:23.943Z,18.93
2018-03-22T15:10:25.260Z,15.60
2018-03-22T15:12:26.246Z,17.23
2018-03-22T15:14:29.913Z,20.80
2018-03-22T15:16:31.121Z,21.10
2018-03-22T15:18:32.100Z,19.90
2018-03-22T15:20:33.130Z,13.20
2018-03-22T15:22:34.807Z,12.10
2018-03-22T15:24:35.818Z,10.90
2018-03-22T15:26:36.857Z,8.90
2018-03-22T15:28:37.895Z,8.17
2018-03-22T15:30:38.856Z,9.40
2018-03-22T15:32:39.790Z,8.63
2018-03-22T15:34:40.779Z,8.30
2018-03-22T15:36:42.454Z,9.00
2018-03-22T15:38:43.407Z,7.93
2018-03-22T15:40:44.347Z,8.80
2018-03-22T15:42:45.288Z,8.90
2018-03-22T15:44:46.265Z,8.37
2018-03-22T15:46:47.207Z,7.90
2018-03-22T15:48:48.172Z,8.57
2018-03-22T15:50:49.139Z,9.30
2018-03-22T15:52:50.135Z,11.13
2018-03-22T15:54:51.141Z,9.50
2018-03-22T15:56:52.927Z,12.17
2018-03-22T15:58:53.913Z,12.47
2018-03-22T16:00:54.940Z,9.50
2018-03-22T16:02:55.879Z,8.43
2018-03-22T16:04:56.839Z,10.50
2018-03-22T16:06:57.855Z,8.87
2018-03-22T16:08:58.865Z,9.77
2018-03-22T16:10:59.972Z,10.80
2018-03-22T16:13:00.943Z,9.10
2018-03-22T16:15:01.899Z,8.82
2018-03-22T16:17:02.839Z,11.93
2018-03-22T16:19:03.770Z,9.27
2018-03-22T16:21:04.788Z,10.40
2018-03-22T16:23:05.798Z,9.60
2018-03-22T16:25:06.991Z,9.83
2018-03-22T16:27:08.036Z,12.10
2018-03-22T16:29:09.024Z,9.17
2018-03-22T16:31:09.991Z,8.60
2018-03-22T16:33:11.076Z,9.07
2018-03-22T16:35:12.156Z,9.97
2018-03-22T16:37:13.199Z,11.60
2018-03-22T16:39:14.132Z,13.23
2018-03-22T16:41:15.074Z,9.27
2018-03-22T16:45:41.706Z,8.20
2018-03-22T16:47:43.420Z,7.80
2018-03-22T16:49:45.458Z,10.07
2018-03-22T16:51:46.502Z,9.47
2018-03-22T16:53:48.230Z,7.73
2018-03-22T16:55:49.264Z,7.90
2018-03-22T16:57:50.238Z,7.77
2018-03-22T16:59:51.308Z,7.47
2018-03-22T17:04:05.586Z,8.20
2018-03-22T17:06:07.529Z,7.20
2018-03-22T17:08:08.505Z,7.13
2018-03-22T17:10:10.205Z,8.00
2018-03-22T17:12:11.186Z,7.93
2018-03-22T17:14:12.144Z,6.50
2018-03-22T17:16:13.117Z,6.43
2018-03-22T17:18:14.102Z,6.63
2018-03-22T17:20:15.803Z,7.63
2018-03-22T17:22:17.496Z,9.80
2018-03-22T17:24:18.440Z,7.93
2018-03-22T17:26:19.428Z,8.63
2018-03-22T17:28:20.411Z,7.43
2018-03-22T17:30:22.157Z,8.00
2018-03-22T17:32:28.383Z,7.70
2018-03-22T17:34:32.657Z,7.17
2018-03-22T17:36:34.387Z,7.87
2018-03-22T17:38:35.800Z,8.40
2018-03-22T17:40:36.825Z,8.97
2018-03-22T17:42:37.784Z,8.57
2018-03-22T17:44:39.491Z,8.30
2018-03-22T17:46:40.483Z,8.70
2018-03-22T17:48:41.447Z,9.10
2018-03-22T17:50:43.156Z,10.00
2018-03-22T17:52:44.421Z,9.40
2018-03-22T17:54:45.441Z,9.27
2018-03-22T17:56:47.447Z,10.07
2018-03-22T17:58:48.430Z,8.93
2018-03-22T18:00:50.124Z,9.37
2018-03-22T18:02:51.140Z,9.60
2018-03-22T18:04:55.856Z,10.18
2018-03-22T18:07:04.210Z,9.80
2018-03-22T18:09:05.319Z,9.80
2018-03-22T18:11:06.275Z,10.70
2018-03-22T18:13:07.300Z,12.23
2018-03-22T18:15:08.387Z,11.27
2018-03-22T18:17:09.358Z,11.13
2018-03-22T18:19:10.445Z,12.40
2018-03-22T18:21:11.424Z,12.10
2018-03-22T18:23:13.131Z,9.87
2018-03-22T18:25:14.123Z,10.30
2018-03-22T18:27:15.892Z,10.80
2018-03-22T18:29:17.588Z,11.50
2018-03-22T18:31:18.792Z,11.73
2018-03-22T18:33:19.753Z,15.13
2018-03-22T18:35:21.465Z,12.90
2018-03-22T18:37:22.455Z,12.30
2018-03-22T18:39:24.188Z,12.07
2018-03-22T18:41:25.160Z,12.23
2018-03-22T18:43:26.100Z,12.30
2018-03-22T18:45:27.068Z,12.80
2018-03-22T18:47:28.771Z,13.63
2018-03-22T18:49:29.732Z,13.93
2018-03-22T18:51:30.680Z,11.90
2018-03-22T18:53:31.733Z,16.10
2018-03-22T18:55:32.737Z,14.60
2018-03-22T18:57:34.420Z,14.93
2018-03-22T18:59:35.372Z,15.20
2018-03-22T19:01:37.358Z,14.87
2018-03-22T19:03:38.330Z,15.00
2018-03-22T19:05:40.037Z,14.87
2018-03-22T19:07:40.985Z,14.97
2018-03-22T19:09:42.041Z,14.30
2018-03-22T19:11:43.020Z,16.23
2018-03-22T19:13:44.072Z,18.67
2018-03-22T19:15:45.209Z,17.43
2018-03-22T19:17:46.945Z,15.83
2018-03-22T19:19:47.931Z,17.08
2018-03-22T19:21:48.913Z,16.33
2018-03-22T19:23:50.621Z,17.67
2018-03-22T19:25:51.792Z,18.30
2018-03-22T19:27:52.789Z,18.07
2018-03-22T19:29:53.876Z,16.80
2018-03-22T19:31:54.880Z,17.17
2018-03-22T19:33:56.001Z,22.45
2018-03-22T19:35:57.012Z,20.70
2018-03-22T19:37:57.999Z,20.73
2018-03-22T19:39:59.749Z,18.40
2018-03-22T19:42:01.613Z,21.23
2018-03-22T19:44:03.321Z,18.80
2018-03-22T19:46:04.316Z,20.50
2018-03-22T19:48:05.314Z,20.80
2018-03-22T19:50:06.449Z,20.77
2018-03-22T19:52:07.432Z,20.33
2018-03-22T19:54:08.458Z,23.75
2018-03-22T19:56:10.461Z,22.33
2018-03-22T19:58:11.412Z,21.70
2018-03-22T20:00:12.404Z,21.90
2018-03-22T20:02:14.101Z,21.63
2018-03-22T20:04:15.238Z,23.00
2018-03-22T20:06:16.330Z,20.60
2018-03-22T20:08:17.328Z,20.90
2018-03-22T20:10:18.307Z,21.53
2018-03-22T20:12:19.297Z,21.83
2018-03-22T20:14:20.318Z,25.50
2018-03-22T20:16:21.227Z,22.77
2018-03-22T20:18:22.208Z,23.90
2018-03-22T20:20:23.193Z,21.07
2018-03-22T20:22:24.209Z,20.00
2018-03-22T20:24:25.213Z,19.17
2018-03-22T20:26:26.151Z,21.30
2018-03-22T20:28:27.140Z,20.47
2018-03-22T20:30:28.130Z,21.33
2018-03-22T20:32:29.211Z,21.00
2018-03-22T20:34:30.299Z,21.43
2018-03-22T20:36:31.367Z,22.20
2018-03-22T20:38:32.370Z,29.33
2018-03-22T20:40:33.380Z,26.48
2018-03-22T20:42:34.421Z,27.13
2018-03-22T20:44:35.516Z,23.60
2018-03-22T20:46:36.487Z,24.27
2018-03-22T20:48:38.331Z,23.07
2018-03-22T20:50:39.340Z,23.70
2018-03-22T20:52:40.475Z,24.07
2018-03-22T20:54:41.466Z,32.22
2018-03-22T20:56:42.466Z,29.30
2018-03-22T20:58:43.437Z,27.60
2018-03-22T21:00:44.407Z,25.87
2018-03-22T21:02:45.564Z,26.00
2018-03-22T21:04:46.578Z,25.77
2018-03-22T21:06:47.556Z,28.35
2018-03-22T21:08:49.113Z,27.03
2018-03-22T21:10:50.153Z,28.70
2018-03-22T21:12:51.309Z,27.80
2018-03-22T21:14:52.395Z,36.72
2018-03-22T21:16:53.510Z,33.93
2018-03-22T21:18:55.331Z,30.60
2018-03-22T21:20:57.531Z,34.60
2018-03-22T21:22:58.539Z,34.23
2018-03-22T21:24:59.532Z,31.57
2018-03-22T21:27:11.011Z,33.75
2018-03-22T21:29:12.066Z,31.70
2018-03-22T21:31:13.796Z,30.57
2018-03-22T21:33:14.886Z,29.50
2018-03-22T21:35:15.938Z,30.80
2018-03-22T21:37:16.888Z,31.33
2018-03-22T21:39:17.840Z,31.63
2018-03-22T21:41:18.841Z,32.50
2018-03-22T21:43:20.606Z,31.67
2018-03-22T21:45:22.277Z,33.43
2018-03-22T21:47:29.774Z,31.80
2018-03-22T21:49:33.891Z,31.90
2018-03-22T21:51:34.984Z,31.00
2018-03-22T21:53:35.967Z,34.80
2018-03-22T21:55:37.725Z,33.27
2018-03-22T21:57:39.461Z,29.97
2018-03-22T21:59:40.448Z,30.83
2018-03-22T22:01:41.436Z,37.45
2018-03-22T22:03:42.433Z,33.67
2018-03-22T22:05:44.224Z,30.57
2018-03-22T22:07:45.262Z,37.45
2018-03-22T22:09:46.228Z,32.47
2018-03-22T22:11:47.242Z,28.80
2018-03-22T22:13:48.241Z,33.95
2018-03-22T22:15:49.221Z,31.53
2018-03-22T22:17:50.211Z,30.40
2018-03-22T22:19:51.525Z,29.30
2018-03-22T22:21:53.681Z,27.73
2018-03-22T22:23:54.768Z,27.70
2018-03-22T22:25:55.945Z,29.33
2018-03-22T22:27:57.133Z,28.47
2018-03-22T22:29:58.885Z,28.57
2018-03-22T22:31:59.858Z,29.80
2018-03-22T22:34:01.793Z,33.60
2018-03-22T22:36:02.798Z,31.23
2018-03-22T22:38:04.579Z,30.83
2018-03-22T22:40:05.591Z,27.53
2018-03-22T22:42:07.283Z,27.63
2018-03-22T22:44:08.291Z,28.17
2018-03-22T22:46:10.117Z,27.43
2018-03-22T22:48:11.135Z,35.20
2018-03-22T22:50:12.167Z,30.20
2018-03-22T22:52:13.128Z,29.43
2018-03-22T22:54:14.256Z,29.23
2018-03-22T22:56:15.252Z,28.47
2018-03-22T22:58:16.209Z,27.80
2018-03-22T23:00:17.175Z,26.60
2018-03-22T23:02:18.288Z,26.00
2018-03-22T23:04:19.280Z,27.03
2018-03-22T23:06:20.262Z,27.03
2018-03-22T23:08:22.205Z,27.03
2018-03-22T23:10:23.269Z,25.10
2018-03-22T23:12:24.397Z,26.20
2018-03-22T23:14:25.403Z,24.20
2018-03-22T23:16:26.401Z,21.67
2018-03-22T23:18:27.537Z,21.40
2018-03-22T23:20:29.382Z,21.80
2018-03-22T23:22:31.270Z,27.35
2018-03-22T23:24:33.193Z,24.37
2018-03-22T23:26:35.123Z,20.23
2018-03-22T23:28:37.017Z,23.95
2018-03-22T23:30:38.246Z,18.40
2018-03-22T23:32:39.916Z,18.60
2018-03-22T23:34:40.921Z,15.97
2018-03-22T23:36:42.008Z,15.57
2018-03-22T23:38:42.977Z,14.70
2018-03-22T23:40:43.988Z,15.10
2018-03-22T23:42:45.044Z,15.87
2018-03-22T23:44:46.167Z,15.73
2018-03-22T23:46:48.056Z,14.20
2018-03-22T23:48:49.862Z,20.37
2018-03-22T23:50:50.861Z,16.77
2018-03-22T23:52:52.572Z,18.07
2018-03-22T23:54:53.610Z,17.77
2018-03-22T23:56:54.584Z,17.40
2018-03-22T23:58:55.568Z,17.57
